createdAt,value
2018-04-06T00:00:47.040Z,97107.72
2018-04-06T00:04:10.345Z,97107.63
2018-04-06T00:07:33.724Z,97101.76
2018-04-06T00:10:57.116Z,97094.35
2018-04-06T00:14:20.412Z,97097.36
2018-04-06T00:17:43.757Z,97095.36
2018-04-06T00:21:06.975Z,97093.71
2018-04-06T00:24:30.258Z,97092.45
2018-04-06T00:27:53.543Z,97087.52
2018-04-06T00:31:16.836Z,97089.30
2018-04-06T00:34:40.118Z,97089.92
2018-04-06T00:38:03.475Z,97084.77
2018-04-06T00:41:26.757Z,97081.87
2018-04-06T00:44:50.041Z,97064.76
2018-04-06T00:48:13.323Z,97074.40
2018-04-06T00:51:36.856Z,97072.95
2018-04-06T00:55:00.299Z,97057.55
2018-04-06T00:58:24.340Z,97064.27
2018-04-06T01:01:47.666Z,97066.67
2018-04-06T01:05:11.748Z,97067.44
2018-04-06T01:08:35.772Z,97067.07
2018-04-06T01:11:59.872Z,97062.56
2018-04-06T01:15:23.150Z,97054.20
2018-04-06T01:18:46.438Z,97056.86
2018-04-06T01:22:10.824Z,97047.11
2018-04-06T01:25:34.106Z,97046.20
2018-04-06T01:28:58.396Z,97046.42
2018-04-06T01:32:21.890Z,97042.17
2018-04-06T01:35:45.989Z,97043.20
2018-04-06T01:39:09.266Z,97051.73
2018-04-06T01:42:32.552Z,97050.77
2018-04-06T01:45:55.846Z,97048.77
2018-04-06T01:49:19.208Z,97038.90
2018-04-06T01:52:42.465Z,97030.54
2018-04-06T01:56:06.568Z,97031.02
2018-04-06T01:59:29.920Z,97028.92
2018-04-06T02:02:53.209Z,97028.68
2018-04-06T02:06:16.480Z,97031.75
2018-04-06T02:09:39.814Z,97034.05
2018-04-06T02:13:03.115Z,97020.72
2018-04-06T02:16:27.234Z,97031.02
2018-04-06T02:19:50.480Z,97031.48
2018-04-06T02:23:14.576Z,97026.14
2018-04-06T02:26:37.866Z,97020.28
2018-04-06T02:30:01.150Z,97015.59
2018-04-06T02:33:24.444Z,97024.81
2018-04-06T02:36:47.737Z,97025.25
2018-04-06T02:40:11.085Z,97029.52
2018-04-06T02:43:34.383Z,97022.74
2018-04-06T02:46:57.646Z,97028.72
2018-04-06T02:50:20.966Z,97026.09
2018-04-06T02:53:44.285Z,97024.66
2018-04-06T02:57:07.656Z,97027.67
2018-04-06T03:00:30.938Z,97026.01
2018-04-06T03:03:54.194Z,97028.15
2018-04-06T03:07:18.287Z,97025.25
2018-04-06T03:10:41.571Z,97016.44
2018-04-06T03:14:04.864Z,97009.30
2018-04-06T03:17:28.245Z,97014.75
2018-04-06T03:20:51.578Z,97014.02
2018-04-06T03:24:14.877Z,97014.00
2018-04-06T03:27:38.141Z,97014.98
2018-04-06T03:31:01.430Z,97015.02
2018-04-06T03:34:24.713Z,97012.67
2018-04-06T03:37:48.003Z,97007.46
2018-04-06T03:41:11.407Z,97002.55
2018-04-06T03:44:35.430Z,97000.11
2018-04-06T03:47:58.727Z,96994.55
2018-04-06T03:51:22.007Z,96993.36
2018-04-06T03:54:45.289Z,96986.98
2018-04-06T03:58:08.598Z,96985.06
2018-04-06T04:01:31.965Z,96986.11
2018-04-06T04:04:55.319Z,96980.02
2018-04-06T04:08:18.638Z,96981.83
2018-04-06T04:11:41.931Z,96983.20
2018-04-06T04:15:05.201Z,96977.13
2018-04-06T04:18:29.353Z,96982.14
2018-04-06T04:21:52.586Z,96985.52
2018-04-06T04:25:15.961Z,96980.22
2018-04-06T04:28:39.224Z,96969.36
2018-04-06T04:32:02.555Z,96969.92
2018-04-06T04:35:26.538Z,96966.03
2018-04-06T04:38:49.919Z,96960.95
2018-04-06T04:42:13.218Z,96953.79
2018-04-06T04:45:37.358Z,96945.42
2018-04-06T04:49:01.432Z,96947.27
2018-04-06T04:52:24.806Z,96942.80
2018-04-06T04:55:48.116Z,96944.95
2018-04-06T04:59:11.427Z,96945.95
2018-04-06T05:02:34.775Z,96948.17
2018-04-06T05:05:58.050Z,96947.11
2018-04-06T05:09:22.338Z,96950.30
2018-04-06T05:12:45.678Z,96951.61
2018-04-06T05:16:09.783Z,96951.20
2018-04-06T05:19:33.900Z,96951.27
2018-04-06T05:22:57.220Z,96955.13
2018-04-06T05:26:20.532Z,96957.75
2018-04-06T05:29:44.244Z,96958.90
2018-04-06T05:33:07.629Z,96961.98
2018-04-06T05:36:30.969Z,96965.59
2018-04-06T05:39:54.348Z,96975.43
2018-04-06T05:43:18.393Z,96978.13
2018-04-06T05:46:41.705Z,96975.59
2018-04-06T05:50:05.222Z,96983.25
2018-04-06T05:53:30.082Z,96981.77
2018-04-06T05:56:53.458Z,96979.02
2018-04-06T06:00:16.897Z,96976.64
2018-04-06T06:03:40.963Z,96979.56
2018-04-06T06:07:04.315Z,96979.45
2018-04-06T06:10:27.728Z,96980.49
2018-04-06T06:13:51.318Z,96986.71
2018-04-06T06:17:14.571Z,96985.48
2018-04-06T06:20:37.937Z,96988.98
2018-04-06T06:24:01.458Z,96979.78
2018-04-06T06:27:24.976Z,96981.55
2018-04-06T06:30:48.252Z,96980.02
2018-04-06T06:34:11.594Z,96982.05
2018-04-06T06:37:34.870Z,96977.56
2018-04-06T06:40:58.148Z,96976.33
2018-04-06T06:44:21.518Z,96980.83
2018-04-06T06:47:44.789Z,96987.45
2018-04-06T06:51:08.083Z,96983.61
2018-04-06T06:54:31.387Z,96985.70
2018-04-06T06:57:54.650Z,96980.36
2018-04-06T07:01:17.924Z,96980.05
2018-04-06T07:04:41.200Z,96978.90
2018-04-06T07:08:04.480Z,96985.28
2018-04-06T07:11:27.771Z,96988.36
2018-04-06T07:14:51.832Z,96981.95
2018-04-06T07:18:15.858Z,96980.34
2018-04-06T07:21:39.902Z,96981.55
2018-04-06T07:25:03.162Z,96982.77
2018-04-06T07:28:26.484Z,96975.67
2018-04-06T07:31:49.763Z,96971.80
2018-04-06T07:35:13.047Z,96973.73
2018-04-06T07:38:36.302Z,96968.95
2018-04-06T07:41:59.567Z,96958.63
2018-04-06T07:45:23.759Z,96962.02
2018-04-06T07:48:47.116Z,96963.73
2018-04-06T07:52:10.380Z,96958.00
2018-04-06T07:55:34.364Z,96957.27
2018-04-06T07:58:57.679Z,96952.75
2018-04-06T08:02:21.193Z,96954.30
2018-04-06T08:05:44.520Z,96952.13
2018-04-06T08:09:08.603Z,96947.52
2018-04-06T08:12:32.161Z,96953.25
2018-04-06T08:15:56.243Z,96946.22
2018-04-06T08:19:19.539Z,96943.55
2018-04-06T08:22:42.848Z,96938.70
2018-04-06T08:26:06.929Z,96948.92
2018-04-06T08:29:30.286Z,96939.77
2018-04-06T08:32:54.337Z,96947.89
2018-04-06T08:36:17.923Z,96937.44
2018-04-06T08:39:41.227Z,96935.11
2018-04-06T08:43:05.674Z,96930.72
2018-04-06T08:46:29.938Z,96930.61
2018-04-06T08:49:55.754Z,96926.59
2018-04-06T08:53:19.160Z,96918.94
2018-04-06T08:56:42.518Z,96925.75
2018-04-06T09:00:06.544Z,96933.03
2018-04-06T09:03:29.876Z,96924.89
2018-04-06T09:06:54.017Z,96925.14
2018-04-06T09:10:18.303Z,96923.46
2018-04-06T09:13:41.568Z,96921.78
2018-04-06T09:17:05.723Z,96915.75
2018-04-06T09:20:29.095Z,96915.98
2018-04-06T09:23:52.356Z,96911.25
2018-04-06T09:27:15.693Z,96908.95
2018-04-06T09:30:45.156Z,96907.86
2018-04-06T09:34:08.614Z,96910.15
2018-04-06T09:37:32.110Z,96894.64
2018-04-06T09:40:57.449Z,96891.69
2018-04-06T09:44:20.724Z,96902.30
2018-04-06T09:47:44.026Z,96893.95
2018-04-06T09:51:07.306Z,96895.02
2018-04-06T09:54:30.603Z,96880.16
2018-04-06T09:57:53.918Z,96881.71
2018-04-06T10:01:18.106Z,96875.34
2018-04-06T10:04:41.426Z,96874.23
2018-04-06T10:08:05.492Z,96875.45
2018-04-06T10:11:28.772Z,96863.11
2018-04-06T10:14:52.120Z,96861.81
2018-04-06T10:18:15.502Z,96856.65
2018-04-06T10:21:38.786Z,96854.64
2018-04-06T10:25:02.834Z,96850.67
2018-04-06T10:28:26.118Z,96842.10
2018-04-06T10:31:49.450Z,96837.48
2018-04-06T10:35:12.758Z,96839.47
2018-04-06T10:38:36.133Z,96837.91
2018-04-06T10:41:59.411Z,96837.89
2018-04-06T10:45:22.836Z,96840.69
2018-04-06T10:48:57.814Z,96830.13
2018-04-06T10:52:32.648Z,96831.44
2018-04-06T10:55:56.682Z,96830.69
2018-04-06T10:59:19.987Z,96822.25
2018-04-06T11:02:42.841Z,96812.02
2018-04-06T11:06:05.810Z,96816.72
2018-04-06T11:09:28.808Z,96815.06
2018-04-06T11:12:51.690Z,96801.52
2018-04-06T11:16:15.297Z,96808.08
2018-04-06T11:19:38.337Z,96801.14
2018-04-06T11:23:02.091Z,96789.88
2018-04-06T11:26:24.915Z,96784.28
2018-04-06T11:29:47.784Z,96783.20
2018-04-06T11:33:10.848Z,96773.11
2018-04-06T11:36:33.716Z,96784.46
2018-04-06T11:39:56.628Z,96776.98
2018-04-06T11:43:19.483Z,96762.20
2018-04-06T11:46:42.459Z,96764.33
2018-04-06T11:50:05.358Z,96764.45
2018-04-06T11:53:28.174Z,96752.51
2018-04-06T11:56:51.017Z,96742.93
2018-04-06T12:00:13.848Z,96743.55
2018-04-06T12:03:36.699Z,96740.39
2018-04-06T12:06:59.530Z,96736.86
2018-04-06T12:10:22.370Z,96726.51
2018-04-06T12:13:46.013Z,96733.67
2018-04-06T12:17:09.620Z,96729.77
2018-04-06T12:20:32.588Z,96724.98
2018-04-06T12:23:56.254Z,96723.08
2018-04-06T12:27:19.090Z,96708.36
2018-04-06T12:30:41.954Z,96706.40
2018-04-06T12:34:04.797Z,96705.83
2018-04-06T12:37:27.630Z,96707.55
2018-04-06T12:40:50.477Z,96698.38
2018-04-06T12:44:13.312Z,96698.26
2018-04-06T12:47:36.916Z,96695.68
2018-04-06T12:50:59.778Z,96690.38
2018-04-06T12:54:22.603Z,96687.63
2018-04-06T12:57:45.426Z,96688.31
2018-04-06T13:01:09.474Z,96681.33
2018-04-06T13:04:32.297Z,96683.09
2018-04-06T13:07:55.918Z,96677.67
2018-04-06T13:11:18.820Z,96681.93
2018-04-06T13:14:41.659Z,96679.17
2018-04-06T13:18:04.500Z,96675.81
2018-04-06T13:21:28.124Z,96662.00
2018-04-06T13:24:51.834Z,96658.33
2018-04-06T13:28:14.941Z,96657.13
2018-04-06T13:31:37.762Z,96658.25
2018-04-06T13:35:01.411Z,96658.18
2018-04-06T13:38:25.024Z,96649.00
2018-04-06T13:41:47.946Z,96647.17
2018-04-06T13:45:10.765Z,96642.62
2018-04-06T13:48:34.366Z,96641.39
2018-04-06T13:51:57.291Z,96642.83
2018-04-06T13:55:20.147Z,96635.67
2018-04-06T13:58:42.997Z,96629.19
2018-04-06T14:02:05.839Z,96622.56
2018-04-06T14:05:28.650Z,96622.66
2018-04-06T14:08:52.272Z,96624.41
2018-04-06T14:12:15.107Z,96616.33
2018-04-06T14:15:38.094Z,96615.61
2018-04-06T14:19:00.948Z,96621.15
2018-04-06T14:22:23.823Z,96607.59
2018-04-06T14:25:46.639Z,96610.41
2018-04-06T14:29:09.516Z,96606.47
2018-04-06T14:32:32.344Z,96594.70
2018-04-06T14:35:55.335Z,96598.02
2018-04-06T14:39:18.199Z,96588.48
2018-04-06T14:42:41.066Z,96601.58
2018-04-06T14:46:05.302Z,96596.11
2018-04-06T14:49:28.900Z,96592.79
2018-04-06T14:52:51.739Z,96590.83
2018-04-06T14:56:14.564Z,96581.16
2018-04-06T14:59:38.178Z,96574.45
2018-04-06T15:03:01.021Z,96571.66
2018-04-06T15:06:23.893Z,96578.93
2018-04-06T15:09:46.703Z,96569.68
2018-04-06T15:13:09.715Z,96571.75
2018-04-06T15:16:32.554Z,96566.84
2018-04-06T15:19:55.552Z,96564.51
2018-04-06T15:23:18.387Z,96558.33
2018-04-06T15:26:41.223Z,96552.11
2018-04-06T15:30:04.809Z,96552.06
2018-04-06T15:33:27.657Z,96553.95
2018-04-06T15:36:50.536Z,96546.17
2018-04-06T15:40:13.383Z,96546.36
2018-04-06T15:43:36.207Z,96540.41
2018-04-06T15:46:59.139Z,96542.59
2018-04-06T15:50:21.976Z,96543.14
2018-04-06T15:53:44.836Z,96537.31
2018-04-06T15:57:07.678Z,96531.71
2018-04-06T16:00:30.514Z,96531.03
2018-04-06T16:03:53.384Z,96524.41
2018-04-06T16:07:16.220Z,96526.31
2018-04-06T16:10:39.082Z,96517.62
2018-04-06T16:14:01.933Z,96523.51
2018-04-06T16:17:24.805Z,96512.05
2018-04-06T16:20:48.520Z,96512.61
2018-04-06T16:24:11.426Z,96509.98
2018-04-06T16:27:34.332Z,96508.53
2018-04-06T16:30:57.196Z,96515.23
2018-04-06T16:34:20.053Z,96505.55
2018-04-06T16:37:42.959Z,96505.00
2018-04-06T16:41:05.941Z,96509.67
2018-04-06T16:44:28.813Z,96504.29
2018-04-06T16:47:52.656Z,96497.56
2018-04-06T16:51:15.520Z,96501.30
2018-04-06T16:54:38.357Z,96498.41
2018-04-06T16:58:01.223Z,96496.53
2018-04-06T17:01:24.156Z,96490.73
2018-04-06T17:04:47.902Z,96496.64
2018-04-06T17:08:10.782Z,96497.77
2018-04-06T17:14:13.797Z,96500.70
2018-04-06T17:19:28.259Z,96498.17
2018-04-06T17:22:51.188Z,96492.86
2018-04-06T17:26:14.820Z,96497.16
2018-04-06T17:29:37.751Z,96489.69
2018-04-06T17:33:00.665Z,96497.70
2018-04-06T17:36:23.522Z,96503.67
2018-04-06T17:39:46.420Z,96500.40
2018-04-06T17:43:09.265Z,96498.19
2018-04-06T17:46:32.127Z,96494.54
2018-04-06T17:49:54.982Z,96499.03
2018-04-06T17:53:19.168Z,96496.98
2018-04-06T17:56:42.483Z,96495.56
2018-04-06T18:00:08.309Z,96496.03
2018-04-06T18:03:31.638Z,96489.69
2018-04-06T18:06:54.975Z,96500.02
2018-04-06T18:10:19.085Z,96502.86
2018-04-06T18:13:42.532Z,96499.80
2018-04-06T18:17:05.866Z,96496.66
2018-04-06T18:20:29.172Z,96499.50
2018-04-06T18:23:52.469Z,96497.60
2018-04-06T18:27:15.802Z,96494.82
2018-04-06T18:30:39.731Z,96493.03
2018-04-06T18:34:03.053Z,96495.73
2018-04-06T18:37:26.406Z,96498.13
2018-04-06T18:40:49.767Z,96492.25
2018-04-06T18:44:13.155Z,96499.81
2018-04-06T18:47:36.444Z,96498.00
2018-04-06T18:50:59.753Z,96496.95
2018-04-06T18:54:23.088Z,96499.47
2018-04-06T18:57:47.305Z,96500.33
2018-04-06T19:01:11.408Z,96506.78
2018-04-06T19:04:34.793Z,96510.83
2018-04-06T19:07:58.144Z,96506.48
2018-04-06T19:11:21.594Z,96504.25
2018-04-06T19:14:45.784Z,96509.81
2018-04-06T19:18:10.097Z,96498.16
2018-04-06T19:21:33.502Z,96502.70
2018-04-06T19:25:00.110Z,96516.55
2018-04-06T19:28:25.333Z,96507.07
2018-04-06T19:31:48.661Z,96504.39
2018-04-06T19:35:12.778Z,96500.60
2018-04-06T19:38:36.164Z,96504.55
2018-04-06T19:42:00.568Z,96499.33
2018-04-06T19:45:25.055Z,96500.47
2018-04-06T19:48:49.432Z,96502.24
2018-04-06T19:52:13.473Z,96494.41
2018-04-06T19:55:38.391Z,96495.70
2018-04-06T19:59:02.478Z,96494.18
2018-04-06T20:02:26.619Z,96495.50
2018-04-06T20:05:49.955Z,96491.77
2018-04-06T20:09:13.268Z,96495.08
2018-04-06T20:12:36.626Z,96483.59
2018-04-06T20:16:00.768Z,96489.26
2018-04-06T20:19:25.727Z,96487.59
2018-04-06T20:22:49.007Z,96481.55
2018-04-06T20:26:12.356Z,96485.69
2018-04-06T20:29:35.926Z,96476.72
2018-04-06T20:32:59.280Z,96473.94
2018-04-06T20:36:22.567Z,96474.16
2018-04-06T20:39:45.872Z,96473.76
2018-04-06T20:43:09.214Z,96468.81
2018-04-06T20:46:32.637Z,96466.64
2018-04-06T20:49:55.912Z,96461.69
2018-04-06T20:53:19.345Z,96462.73
2018-04-06T20:56:42.931Z,96460.81
2018-04-06T21:00:06.369Z,96460.02
2018-04-06T21:03:29.729Z,96458.33
2018-04-06T21:06:53.051Z,96454.61
2018-04-06T21:10:17.161Z,96457.58
2018-04-06T21:13:40.514Z,96456.97
2018-04-06T21:17:03.926Z,96456.78
2018-04-06T21:20:27.240Z,96448.36
2018-04-06T21:23:50.638Z,96444.39
2018-04-06T21:27:13.956Z,96449.41
2018-04-06T21:30:37.280Z,96448.52
2018-04-06T21:34:00.623Z,96444.16
2018-04-06T21:37:24.810Z,96451.01
2018-04-06T21:40:48.205Z,96441.52
2018-04-06T21:44:12.267Z,96443.45
2018-04-06T21:47:35.635Z,96431.24
2018-04-06T21:50:58.986Z,96433.59
2018-04-06T21:54:22.338Z,96433.61
2018-04-06T21:57:45.673Z,96436.44
2018-04-06T22:01:09.126Z,96429.02
2018-04-06T22:04:32.483Z,96427.59
2018-04-06T22:07:56.011Z,96423.13
2018-04-06T22:11:20.140Z,96427.31
2018-04-06T22:14:43.561Z,96429.62
2018-04-06T22:18:06.888Z,96429.52
2018-04-06T22:21:30.282Z,96432.13
2018-04-06T22:24:53.645Z,96430.08
2018-04-06T22:28:17.018Z,96436.25
2018-04-06T22:31:41.078Z,96436.52
2018-04-06T22:35:04.476Z,96433.58
2018-04-06T22:38:28.572Z,96434.91
2018-04-06T22:41:51.870Z,96435.39
2018-04-06T22:45:15.207Z,96429.30
2018-04-06T22:48:38.507Z,96432.64
2018-04-06T22:52:01.795Z,96436.10
2018-04-06T22:55:25.068Z,96435.20
2018-04-06T22:58:48.361Z,96435.86
2018-04-06T23:02:11.657Z,96444.14
2018-04-06T23:05:35.011Z,96441.55
2018-04-06T23:08:58.355Z,96437.17
2018-04-06T23:12:21.655Z,96434.20
2018-04-06T23:15:44.992Z,96427.59
2018-04-06T23:19:08.302Z,96427.48
2018-04-06T23:22:31.634Z,96436.60
2018-04-06T23:25:54.920Z,96436.31
2018-04-06T23:29:18.197Z,96432.45
2018-04-06T23:32:41.512Z,96435.46
2018-04-06T23:36:04.848Z,96436.66
2018-04-06T23:39:28.289Z,96436.28
2018-04-06T23:42:51.652Z,96439.13
2018-04-06T23:46:15.058Z,96442.44
2018-04-06T23:49:38.346Z,96434.82
2018-04-06T23:53:01.716Z,96435.52
2018-04-06T23:56:25.240Z,96427.90
2018-04-06T23:59:49.279Z,96439.43
